Ana Sayfa
METAR-TAF:

METAR-TAF

Havaalanları :

Oswego County Airport

Fulton, New York, Amerika Birleşik Devletleri

Enlem: 43-21-03N, Boylam: 076-23-17W, yükseklik: 145 m

Güncel hava durumu gözlemi

Rapor saat 20:54 UTC de 1 saat ve 2 dakika önce yapıldı.
Rüzgar kuzey/kuzeybatıdan 6 kt
Sıcaklık 9°C
Nem 49%
Basınç 1013 hPa
Görüş mesafesi: 16.1 km
Açık gökyüzü

METAR: KFZY 242054Z AUTO 33006KT 10SM CLR 09/M01 A2991 RMK AO2 SLP130 T00941011 55005

Saat: 16:56 (21:56 UTC)


TAF: eksik

4.000'den fazla havaalanı için hava durumu gözlemleri ve tahminleri (METAR ve TAF raporları).

Kullanılabilir istasyonlar harita üzerinde sarı ve kırmızı noktalarla gösterilir.

İstasyonun adını görmek için fareyi noktanın üzerinde gezdirin.

Sonrasında hava gözlem ve tahminlerini görmek için tıklayın.

Haritayı değiştirmek için: yaklaştırmak için siyah artı işaretli yeşil düğmeye ve uzaklaştırmak için de eksi işaretli düğmeye hızla tıklayın; bitişik haritalar için yeşil okları kullanın.


METAR-TAF: